• Join FlightAware (Why Join?)
  • Login
  • US Flag 
08:13PM EDT


 

Airport Tracker/Info


-or-


 

Live Flight TrackerFlight Track Log ✈ SWA216 ✈ 04-May-2013 ✈ KDEN - KSNA

Flight Track Log - Related Links

Times and Time Zones

All times are in EDT time to prevent confusion due to time zone crossing. See the SWA216 flight status page for this flight to view local times or setup timezone preferences in your user account.

Time Position Orientation Groundspeed Altitude Reporting Facility
EDT Latitude Longitude Course Direction KTS MPH feet Rate Location/Type
10:07PM 39.7833 -104.7000 245° Southwest 228 262 7,600  Level Denver TRACON
10:08PM 39.7483 -104.7806 241° Southwest 254 292 10,600 2,520 Climbing Denver Center
10:09PM 39.7244 -104.8911 254° West 318 366 13,000 2,760 Climbing Denver Center
10:10PM 39.6947 -105.0128 252° West 350 403 16,300 3,060 Climbing Denver Center
10:11PM 39.6825 -105.1408 263° West 359 413 19,300 2,880 Climbing Denver Center
10:12PM 39.6121 -105.4167 245° Southwest  Level FlightAware Approximate
10:12PM 39.6433 -105.2769 250° West 375 432 22,200  Level Denver Center
10:13PM 39.6114 -105.3950 251° West 385 443 24,300 1,980 Climbing Denver Center
10:14PM 39.5736 -105.5314 250° West 401 461 26,300 1,860 Climbing Denver Center
10:15PM 39.5183 -105.6644 242° Southwest 415 478 28,200 1,860 Climbing Denver Center
10:16PM 39.4561 -105.7950 238° Southwest 423 487 30,200 2,280 Climbing Denver Center
10:17PM 39.3978 -105.9203 239° Southwest 407 468 32,900 2,400 Climbing Denver Center
10:18PM 39.3414 -106.0411 239° Southwest 392 451 35,200 1,500 Climbing Denver Center
10:19PM 39.2769 -106.1772 239° Southwest 385 443 36,000 360 Climbing Denver Center
10:20PM 39.2233 -106.2897 238° Southwest 385 443 36,000  Level Denver Center
10:21PM 39.1692 -106.4028 238° Southwest 386 444 36,000 480 Level Denver Center
10:22PM 39.1050 -106.5344 238° Southwest 387 445 37,000 960 Climbing Denver Center
10:23PM 39.0519 -106.6447 238° Southwest 381 438 38,000 480 Climbing Denver Center
10:24PM 38.9969 -106.7586 238° Southwest 388 447 38,000  Level Denver Center
10:25PM 38.9328 -106.8892 238° Southwest 387 445 38,000  Level Denver Center
10:26PM 38.8775 -107.0022 238° Southwest 388 447 38,000  Level Denver Center
10:27PM 38.8256 -107.1075 238° Southwest 392 451 38,000  Level Denver Center
10:28PM 38.7578 -107.2458 238° Southwest 385 443 38,000  Level Denver Center
10:29PM 38.7039 -107.3561 238° Southwest 380 437 38,000  Level Denver Center
10:30PM 38.6483 -107.4658 237° Southwest 382 440 38,000  Level Denver Center
10:31PM 38.5842 -107.5950 238° Southwest 384 442 38,000  Level Denver Center
10:32PM 38.5303 -107.7025 237° Southwest 378 435 38,000  Level Denver Center
10:33PM 38.4764 -107.8108 238° Southwest 376 433 38,000  Level Denver Center
10:34PM 38.4122 -107.9364 237° Southwest 377 434 38,000  Level Denver Center
10:35PM 38.3581 -108.0450 238° Southwest 377 434 38,000  Level Denver Center
10:36PM 38.3031 -108.1511 237° Southwest 376 433 38,000  Level Denver Center
10:37PM 38.2394 -108.2783 238° Southwest 378 435 38,000  Level Denver Center
10:38PM 38.1842 -108.3875 237° Southwest 381 438 38,000  Level Denver Center
10:39PM 38.1283 -108.4950 237° Southwest 381 438 38,000  Level Denver Center
10:40PM 38.0639 -108.6203 237° Southwest 378 435 38,000  Level Denver Center
10:41PM 38.0119 -108.7186 236° Southwest 373 429 38,000  Level Denver Center
10:42PM 37.9478 -108.8447 237° Southwest 380 437 38,000  Level Denver Center
10:43PM 37.8922 -108.9508 236° Southwest 378 435 38,000  Level Denver Center
10:44PM 37.8350 -109.0592 236° Southwest 386 444 38,000  Level Denver Center
10:45PM 37.7692 -109.1875 237° Southwest 389 448 38,000  Level Denver Center
10:46PM 37.7111 -109.2953 236° Southwest 390 449 38,000  Level Denver Center
10:47PM 37.6544 -109.4044 237° Southwest 390 449 38,000  Level Denver Center
10:48PM 37.5881 -109.5294 236° Southwest 387 445 38,000  Level Denver Center
10:49PM 37.5206 -109.6561 236° Southwest 390 449 38,000  Level Denver Center
10:50PM 37.4522 -109.7833 236° Southwest 392 451 38,000  Level Denver Center
10:51PM 37.3939 -109.8922 236° Southwest 393 452 38,000  Level Denver Center
10:52PM 37.3364 -110.0000 236° Southwest 391 450 38,000  Level Denver Center
10:53PM 37.2703 -110.1247 236° Southwest 385 443 38,000  Level Denver Center
10:55PM 37.2175 -110.2200 235° Southwest 391 450 38,000  Level Denver Center
10:56PM 37.1458 -110.3533 236° Southwest 385 443 38,000  Level Denver Center
10:57PM 37.0847 -110.4650 236° Southwest 388 447 38,000  Level Denver Center
10:58PM 37.0247 -110.5750 236° Southwest 384 442 38,000  Level Denver Center
10:59PM 36.9644 -110.6853 236° Southwest 384 442 38,000  Level Denver Center
11:00PM 36.9036 -110.7967 236° Southwest 387 445 38,000  Level Denver Center
11:01PM 36.8431 -110.9061 235° Southwest 385 443 38,000  Level Denver Center
11:02PM 36.7831 -111.0147 235° Southwest 382 440 38,000  Level Denver Center
11:03PM 36.7244 -111.1225 236° Southwest 377 434 38,000  Level Denver Center
11:04PM 36.6636 -111.2328 236° Southwest 381 438 38,000  Level Denver Center
11:05PM 36.6003 -111.3431 234° Southwest 386 444 38,000  Level Denver Center
11:06PM 36.5381 -111.4556 235° Southwest 392 451 38,000  Level Denver Center
11:07PM 36.4747 -111.5664 235° Southwest 392 451 38,000  Level Denver Center
11:08PM 36.4125 -111.6772 235° Southwest 392 451 38,000  Level Denver Center
11:09PM 36.3506 -111.7875 235° Southwest 390 449 38,000  Level Denver Center
11:10PM 36.2878 -111.8958 234° Southwest 386 444 38,000  Level Denver Center
11:10PM 36.2739 -111.9183 233° Southwest 384 442 38,000  Level Los Angeles Center
11:11PM 36.2003 -112.0497 235° Southwest 386 444 38,000  Level Los Angeles Center
11:12PM 36.1475 -112.1417 235° Southwest 391 450 38,000  Level Los Angeles Center
11:13PM 36.0847 -112.2508 235° Southwest 391 450 38,000  Level Los Angeles Center
11:14PM 36.0122 -112.3781 235° Southwest 386 444 38,000  Level Los Angeles Center
11:15PM 35.9350 -112.5092 234° Southwest 390 449 38,000  Level Los Angeles Center
11:16PM 35.8714 -112.6178 234° Southwest 393 452 38,000  Level Los Angeles Center
11:17PM 35.8092 -112.7272 235° Southwest 393 452 38,000  Level Los Angeles Center
11:18PM 35.7464 -112.8342 234° Southwest 392 451 38,000  Level Los Angeles Center
11:19PM 35.6756 -112.9553 234° Southwest 389 448 38,000  Level Los Angeles Center
11:20PM 35.6119 -113.0631 234° Southwest 389 448 38,000  Level Los Angeles Center
11:21PM 35.5486 -113.1714 234° Southwest 390 449 38,000  Level Los Angeles Center
11:22PM 35.4844 -113.2806 234° Southwest 389 448 38,000  Level Los Angeles Center
11:23PM 35.4222 -113.3869 234° Southwest 390 449 38,000  Level Los Angeles Center
11:24PM 35.3594 -113.4914 234° Southwest 386 444 38,000  Level Los Angeles Center
11:25PM 35.2969 -113.5969 234° Southwest 387 445 38,000  Level Los Angeles Center
11:26PM 35.2217 -113.7222 234° Southwest 385 443 38,000  Level Los Angeles Center
11:27PM 35.1581 -113.8272 233° Southwest 386 444 38,000  Level Los Angeles Center
11:29PM 35.0947 -113.9336 234° Southwest 388 447 38,000  Level Los Angeles Center
11:30PM 35.0272 -114.0453 234° Southwest 389 448 38,000  Level Los Angeles Center
11:31PM 34.9625 -114.1503 233° Southwest 387 445 38,000  Level Los Angeles Center
11:32PM 34.8981 -114.2586 234° Southwest 395 455 38,000  Level Los Angeles Center
11:33PM 34.8331 -114.3644 233° Southwest 390 449 38,000  Level Los Angeles Center
11:34PM 34.7667 -114.4719 233° Southwest 394 453 38,000 -480 Level Los Angeles Center
11:35PM 34.7136 -114.6153 246° West 388 447 37,000 -1,080 Descending Los Angeles Center
11:36PM 34.6719 -114.7294 246° West 374 430 35,900 -1,020 Descending Los Angeles Center
11:37PM 34.6317 -114.8425 247° West 379 436 35,000 -1,020 Descending Los Angeles Center
11:38PM 34.5811 -114.9828 246° West 381 438 33,900 -1,080 Descending Los Angeles Center
11:39PM 34.5389 -115.1022 247° West 386 444 32,900 -1,020 Descending Los Angeles Center
11:40PM 34.4958 -115.2219 246° West 388 447 31,900 -960 Descending Los Angeles Center
11:41PM 34.4503 -115.3442 246° West 396 456 31,000 -960 Descending Los Angeles Center
11:42PM 34.4056 -115.4675 246° West 400 460 30,000 -960 Descending Los Angeles Center
11:43PM 34.3594 -115.5917 246° West 404 465 29,100 -960 Descending Los Angeles Center
11:44PM 34.3144 -115.7164 246° West 405 466 28,100 -1,020 Descending Los Angeles Center
11:45PM 34.2681 -115.8403 246° West 405 466 27,100 -600 Descending Los Angeles Center
11:46PM 34.2219 -115.9656 246° West 397 457 27,000 -60 Descending Los Angeles Center
11:47PM 34.1767 -116.0881 246° West 399 459 27,000 -540 Level Los Angeles Center
11:48PM 34.1242 -116.2283 246° West 398 458 26,000 -1,560 Descending Los Angeles Center
11:49PM 34.0792 -116.3481 246° West 394 453 23,900 -1,860 Descending Los Angeles Center
11:50PM 34.0358 -116.4625 245° Southwest 381 438 22,300 -1,980 Descending Los Angeles Center
11:51PM 33.9933 -116.5764 246° West 376 433 19,900 -2,460 Descending Los Angeles Center
11:52PM 33.9508 -116.6872 245° Southwest 368 423 17,400 -2,460 Descending Los Angeles Center
11:53PM 33.9092 -116.7972 245° Southwest 364 419 14,900 -2,460 Descending Los Angeles Center
11:54PM 33.8742 -116.9053 249° West 352 405 12,500 -2,460 Descending Los Angeles Center
11:55PM 33.8592 -117.0186 261° West 348 400 10,000 -1,260 Descending Los Angeles Center
11:56PM 33.8428 -117.1378 261° West 329 379 10,000  Level Los Angeles Center
11:57PM 33.8286 -117.2422 261° West 321 369 10,000 -180 Level Los Angeles Center
11:58PM 33.8150 -117.3422 261° West 307 353 9,700 -900 Descending Los Angeles Center
11:59PM 33.8003 -117.4456 260° West 266 306 8,000 -840 Descending Los Angeles Center
12:01AM 33.7914 -117.5275 263° West 253 291 8,000 -480 Level Los Angeles Center
12:02AM 33.8014 -117.5950 280° West 214 246 7,100 -780 Descending Los Angeles Center
12:02AM 33.8167 -117.6667 284° West 194 223 6,600 -780 Descending Southern California TRACON
12:03AM 33.8167 -117.7167 270° West 172 198 5,700 -840 Descending Southern California TRACON
12:04AM 33.8167 -117.7833 270° West 181 208 5,000 -900 Descending Southern California TRACON
12:05AM 33.8333 -117.8333 292° West 192 221 4,000 -540 Descending Southern California TRACON
12:06AM 33.8667 -117.8333 360° North 191 220 4,000 -420 Level Southern California TRACON
12:07AM 33.8667 -117.7833 90° East 194 223 3,200 -480 Descending Southern California TRACON
12:09AM 33.8167 -117.7833 180° South 162 186 3,000 -540 Descending Southern California TRACON
12:09AM 33.7833 -117.8000 203° Southwest 162 186 2,200 -900 Descending Southern California TRACON
12:10AM 33.7500 -117.8333 220° Southwest 138 159 1,400 -780 Descending Southern California TRACON
12:11AM 33.7167 -117.8500 203° Southwest 130 150 700 -660 Descending Southern California TRACON
12:12AM 33.6833 -117.8667 203° Southwest 132 152 200 -600 Descending Southern California TRACON